createdAt,value
2023-01-05T00:01:13.323Z,0.90
2023-01-05T00:03:40.424Z,0.80
2023-01-05T00:06:11.381Z,0.70
2023-01-05T00:08:39.092Z,0.80
2023-01-05T00:11:36.366Z,0.90
2023-01-05T00:14:21.801Z,1.00
2023-01-05T00:17:07.128Z,0.80
2023-01-05T00:19:52.716Z,0.77
2023-01-05T00:22:32.007Z,0.80
2023-01-05T00:25:04.796Z,0.93
2023-01-05T00:27:38.150Z,0.80
2023-01-05T00:30:05.833Z,0.80
2023-01-05T00:32:32.939Z,0.80
2023-01-05T00:35:00.245Z,0.83
2023-01-05T00:37:30.751Z,0.80
2023-01-05T00:39:57.535Z,0.80
2023-01-05T00:42:24.336Z,0.80
2023-01-05T00:44:51.179Z,0.80
2023-01-05T00:47:17.915Z,0.80
2023-01-05T00:49:44.691Z,0.90
2023-01-05T00:52:11.394Z,1.20
2023-01-05T00:54:38.158Z,0.93
2023-01-05T00:57:07.154Z,1.30
2023-01-05T00:59:33.922Z,1.00
2023-01-05T01:02:00.849Z,0.83
2023-01-05T01:04:31.391Z,1.00
2023-01-05T01:06:58.190Z,0.90
2023-01-05T01:09:25.208Z,1.10
2023-01-05T01:14:17.903Z,0.93
2023-01-05T01:16:45.316Z,0.90
2023-01-05T01:19:30.363Z,0.80
2023-01-05T01:21:57.110Z,0.90
2023-01-05T01:24:27.482Z,0.80
2023-01-05T01:26:55.260Z,0.80
2023-01-05T01:29:23.485Z,0.90
2023-01-05T01:31:52.408Z,1.13
2023-01-05T01:34:19.471Z,1.10
2023-01-05T01:36:46.587Z,0.90
2023-01-05T01:39:14.266Z,1.00
2023-01-05T01:41:41.278Z,0.90
2023-01-05T01:44:45.670Z,0.90
2023-01-05T01:47:20.043Z,0.90
2023-01-05T01:49:46.842Z,1.10
2023-01-05T01:52:14.242Z,0.93
2023-01-05T01:54:41.282Z,0.90
2023-01-05T01:57:11.675Z,0.80
2023-01-05T01:59:38.745Z,0.90
2023-01-05T02:02:07.913Z,0.70
2023-01-05T02:04:36.808Z,0.77
2023-01-05T02:07:04.910Z,0.90
2023-01-05T02:09:32.304Z,0.80
2023-01-05T02:12:30.314Z,0.80
2023-01-05T02:15:35.763Z,0.83
2023-01-05T02:18:17.162Z,0.80
2023-01-05T02:21:02.325Z,0.70
2023-01-05T02:24:07.941Z,0.70
2023-01-05T02:26:59.280Z,0.90
2023-01-05T02:29:34.004Z,0.80
2023-01-05T02:32:19.685Z,0.70
2023-01-05T02:35:12.467Z,0.70
2023-01-05T02:37:52.192Z,0.70
2023-01-05T02:40:27.580Z,0.80
2023-01-05T02:42:56.679Z,0.70
2023-01-05T02:45:24.436Z,0.70
2023-01-05T02:47:51.263Z,0.70
2023-01-05T02:50:34.608Z,0.70
2023-01-05T02:53:27.582Z,0.70
2023-01-05T02:56:09.250Z,0.70
2023-01-05T02:58:41.770Z,0.80
2023-01-05T03:01:17.585Z,0.80
2023-01-05T03:03:56.047Z,0.70
2023-01-05T03:06:30.534Z,0.90
2023-01-05T03:09:01.740Z,0.77
2023-01-05T03:11:57.777Z,0.80
2023-01-05T03:14:39.143Z,0.70
2023-01-05T03:17:10.820Z,0.77
2023-01-05T03:19:41.051Z,0.70
2023-01-05T03:22:48.407Z,0.70
2023-01-05T03:25:38.553Z,0.73
2023-01-05T03:28:27.433Z,0.73
2023-01-05T03:31:32.706Z,0.80
2023-01-05T03:34:26.502Z,0.70
2023-01-05T03:36:59.353Z,0.80
2023-01-05T03:39:30.123Z,0.70
2023-01-05T03:41:57.716Z,0.70
2023-01-05T03:44:24.594Z,0.80
2023-01-05T03:46:51.579Z,0.70
2023-01-05T03:49:18.631Z,0.70
2023-01-05T03:51:45.370Z,0.70
2023-01-05T03:54:12.156Z,0.70
2023-01-05T03:56:39.217Z,0.80
2023-01-05T03:59:05.917Z,0.73
2023-01-05T04:01:32.608Z,0.77
2023-01-05T04:03:59.507Z,0.77
2023-01-05T04:06:26.279Z,0.80
2023-01-05T04:08:53.132Z,0.83
2023-01-05T04:11:22.174Z,0.80
2023-01-05T04:13:49.009Z,0.70
2023-01-05T04:16:16.080Z,0.80
2023-01-05T04:18:42.923Z,0.80
2023-01-05T04:21:10.086Z,0.80
2023-01-05T04:23:36.918Z,0.80
2023-01-05T04:26:04.405Z,0.80
2023-01-05T04:28:31.161Z,0.80
2023-01-05T04:30:57.988Z,0.70
2023-01-05T04:33:26.020Z,0.80
2023-01-05T04:35:52.771Z,0.80
2023-01-05T04:38:19.604Z,0.80
2023-01-05T04:40:50.852Z,0.70
2023-01-05T04:43:18.899Z,0.77
2023-01-05T04:45:48.967Z,0.80
2023-01-05T04:48:16.493Z,0.80
2023-01-05T04:50:43.534Z,1.20
2023-01-05T04:53:10.666Z,1.00
2023-01-05T04:55:37.429Z,1.10
2023-01-05T04:58:08.353Z,0.90
2023-01-05T05:00:38.649Z,0.90
2023-01-05T05:03:05.503Z,1.30
2023-01-05T05:05:32.381Z,1.00
2023-01-05T05:07:59.205Z,1.10
2023-01-05T05:10:26.110Z,1.00
2023-01-05T05:12:52.779Z,0.80
2023-01-05T05:15:19.660Z,1.10
2023-01-05T05:17:46.433Z,0.70
2023-01-05T05:20:13.251Z,0.90
2023-01-05T05:22:40.055Z,0.90
2023-01-05T05:25:07.552Z,0.90
2023-01-05T05:27:34.348Z,0.90
2023-01-05T05:30:01.105Z,1.50
2023-01-05T05:32:27.885Z,0.90
2023-01-05T05:34:54.544Z,0.80
2023-01-05T05:37:21.275Z,0.90
2023-01-05T05:39:47.943Z,1.00
2023-01-05T05:42:14.731Z,1.60
2023-01-05T05:44:41.459Z,1.30
2023-01-05T05:47:08.146Z,1.10
2023-01-05T05:49:34.898Z,1.10
2023-01-05T05:52:01.601Z,0.90
2023-01-05T05:54:28.364Z,1.00
2023-01-05T05:56:55.059Z,0.83
2023-01-05T05:59:21.863Z,0.70
2023-01-05T06:01:48.707Z,0.70
2023-01-05T06:04:15.408Z,0.80
2023-01-05T06:06:42.163Z,0.90
2023-01-05T06:09:08.958Z,0.80
2023-01-05T06:11:35.792Z,0.80
2023-01-05T06:14:03.091Z,0.90
2023-01-05T06:16:29.944Z,0.80
2023-01-05T06:18:56.770Z,0.87
2023-01-05T06:21:23.483Z,0.90
2023-01-05T06:23:50.301Z,0.80
2023-01-05T06:26:17.051Z,1.60
2023-01-05T06:28:43.809Z,1.20
2023-01-05T06:31:10.657Z,1.70
2023-01-05T06:33:37.420Z,1.80
2023-01-05T06:36:04.480Z,0.90
2023-01-05T06:38:31.198Z,2.17
2023-01-05T06:40:59.404Z,2.27
2023-01-05T06:43:26.232Z,0.90
2023-01-05T06:45:53.163Z,1.73
2023-01-05T06:48:20.003Z,1.17
2023-01-05T06:50:46.857Z,0.80
2023-01-05T06:53:13.555Z,0.80
2023-01-05T06:55:40.240Z,0.90
2023-01-05T06:58:07.051Z,0.90
2023-01-05T07:00:33.862Z,0.80
2023-01-05T07:03:00.659Z,0.80
2023-01-05T07:05:27.421Z,0.80
2023-01-05T07:07:54.359Z,1.10
2023-01-05T07:10:21.286Z,1.00
2023-01-05T07:12:48.057Z,1.07
2023-01-05T07:15:14.810Z,1.17
2023-01-05T07:17:41.937Z,0.90
2023-01-05T07:20:09.270Z,1.00
2023-01-05T07:22:36.289Z,1.00
2023-01-05T07:25:03.171Z,1.20
2023-01-05T07:27:29.920Z,1.30
2023-01-05T07:29:56.681Z,1.03
2023-01-05T07:32:23.407Z,1.10
2023-01-05T07:34:55.515Z,1.07
2023-01-05T07:37:24.872Z,1.30
2023-01-05T07:39:52.188Z,1.43
2023-01-05T07:42:18.982Z,2.03
2023-01-05T07:44:45.667Z,1.70
2023-01-05T07:47:12.393Z,1.37
2023-01-05T07:49:39.150Z,1.20
2023-01-05T07:52:05.893Z,1.23
2023-01-05T07:54:32.618Z,1.20
2023-01-05T07:56:59.393Z,1.50
2023-01-05T07:59:26.218Z,1.23
2023-01-05T08:01:53.045Z,1.30
2023-01-05T08:04:19.918Z,1.23
2023-01-05T08:06:46.713Z,1.70
2023-01-05T08:09:32.024Z,1.80
2023-01-05T08:11:58.860Z,2.00
2023-01-05T08:14:25.622Z,1.97
2023-01-05T08:16:52.369Z,1.57
2023-01-05T08:19:19.758Z,2.03
2023-01-05T08:21:46.436Z,1.80
2023-01-05T08:24:13.199Z,2.03
2023-01-05T08:26:40.013Z,2.33
2023-01-05T08:29:06.846Z,2.20
2023-01-05T08:31:37.524Z,2.23
2023-01-05T08:34:05.441Z,2.00
2023-01-05T08:36:33.257Z,1.80
2023-01-05T08:39:03.857Z,1.80
2023-01-05T08:41:32.583Z,2.00
2023-01-05T08:44:01.312Z,1.97
2023-01-05T08:46:32.607Z,1.73
2023-01-05T08:49:01.664Z,1.40
2023-01-05T08:51:29.688Z,2.40
2023-01-05T08:53:56.994Z,2.00
2023-01-05T08:56:30.508Z,3.00
2023-01-05T08:59:00.056Z,2.60
2023-01-05T09:01:27.236Z,1.87
2023-01-05T09:03:54.106Z,2.20
2023-01-05T09:06:20.915Z,2.30
2023-01-05T09:08:48.385Z,2.03
2023-01-05T09:11:20.597Z,1.80
2023-01-05T09:13:49.894Z,1.47
2023-01-05T09:16:42.553Z,1.83
2023-01-05T09:19:06.728Z,2.23
2023-01-05T09:21:33.637Z,2.90
2023-01-05T09:24:00.314Z,1.53
2023-01-05T09:26:27.072Z,2.90
2023-01-05T09:28:54.831Z,1.97
2023-01-05T09:31:23.042Z,3.80
2023-01-05T09:33:50.102Z,3.47
2023-01-05T09:36:18.882Z,2.03
2023-01-05T09:38:50.364Z,2.30
2023-01-05T09:41:28.700Z,3.53
2023-01-05T09:44:30.172Z,2.00
2023-01-05T09:47:04.335Z,2.37
2023-01-05T09:49:33.396Z,1.90
2023-01-05T09:52:03.670Z,1.70
2023-01-05T09:54:33.199Z,1.80
2023-01-05T09:57:09.467Z,1.90
2023-01-05T09:59:39.120Z,1.87
2023-01-05T10:02:33.830Z,2.23
2023-01-05T10:05:02.412Z,1.80
2023-01-05T10:07:45.737Z,1.77
2023-01-05T10:10:29.878Z,1.70
2023-01-05T10:13:04.194Z,1.77
2023-01-05T10:15:34.625Z,2.10
2023-01-05T10:18:10.547Z,2.00
2023-01-05T10:21:01.616Z,2.10
2023-01-05T10:23:46.192Z,2.03
2023-01-05T10:27:06.347Z,2.13
2023-01-05T10:29:49.026Z,2.20
2023-01-05T10:33:14.902Z,3.00
2023-01-05T10:36:02.362Z,2.67
2023-01-05T10:39:04.851Z,1.90
2023-01-05T10:41:50.466Z,2.40
2023-01-05T10:44:34.919Z,2.23
2023-01-05T10:47:02.268Z,2.27
2023-01-05T10:49:31.951Z,2.27
2023-01-05T10:52:01.110Z,2.30
2023-01-05T10:54:44.139Z,2.63
2023-01-05T10:57:34.839Z,2.70
2023-01-05T11:00:16.902Z,3.07
2023-01-05T11:02:52.518Z,2.20
2023-01-05T11:05:48.877Z,2.23
2023-01-05T11:08:21.790Z,2.40
2023-01-05T11:10:57.880Z,1.80
2023-01-05T11:13:36.348Z,2.67
2023-01-05T11:16:14.820Z,2.53
2023-01-05T11:18:50.940Z,2.67
2023-01-05T11:21:19.393Z,2.93
2023-01-05T11:23:50.547Z,2.53
2023-01-05T11:26:25.036Z,3.43
2023-01-05T11:29:09.805Z,3.70
2023-01-05T11:31:38.605Z,3.40
2023-01-05T11:34:37.375Z,2.73
2023-01-05T11:37:16.978Z,3.50
2023-01-05T11:39:46.710Z,2.87
2023-01-05T11:42:25.752Z,2.97
2023-01-05T11:44:57.743Z,2.30
2023-01-05T11:47:46.546Z,2.63
2023-01-05T11:50:13.180Z,4.40
2023-01-05T11:52:41.551Z,2.60
2023-01-05T11:55:20.526Z,3.20
2023-01-05T11:57:59.406Z,2.80
2023-01-05T12:00:35.014Z,2.53
2023-01-05T12:03:23.411Z,3.20
2023-01-05T12:05:58.390Z,3.50
2023-01-05T12:08:37.231Z,5.20
2023-01-05T12:11:19.008Z,2.90
2023-01-05T12:13:55.976Z,3.30
2023-01-05T12:16:44.690Z,2.50
2023-01-05T12:19:36.469Z,2.47
2023-01-05T12:22:30.515Z,3.00
2023-01-05T12:25:14.303Z,2.70
2023-01-05T12:28:04.888Z,3.37
2023-01-05T12:33:35.534Z,2.40
2023-01-05T12:34:23.254Z,2.67
2023-01-05T12:37:23.014Z,3.60
2023-01-05T12:40:08.243Z,2.40
2023-01-05T12:42:58.121Z,3.43
2023-01-05T12:45:54.000Z,2.63
2023-01-05T12:48:48.565Z,2.80
2023-01-05T12:51:40.827Z,2.90
2023-01-05T12:54:38.102Z,2.00
2023-01-05T12:57:16.151Z,2.70
2023-01-05T12:59:58.847Z,2.93
2023-01-05T13:02:34.538Z,3.77
2023-01-05T13:05:07.923Z,2.47
2023-01-05T13:07:43.070Z,3.27
2023-01-05T13:10:32.881Z,3.17
2023-01-05T13:13:10.829Z,2.90
2023-01-05T13:15:45.370Z,4.07
2023-01-05T13:18:18.332Z,3.00
2023-01-05T13:21:12.793Z,3.13
2023-01-05T13:23:45.686Z,2.50
2023-01-05T13:26:17.374Z,2.33
2023-01-05T13:28:47.479Z,2.80
2023-01-05T13:31:26.482Z,4.10
2023-01-05T13:34:27.573Z,3.10
2023-01-05T13:37:23.286Z,2.50
2023-01-05T13:40:18.952Z,3.27
2023-01-05T13:43:14.416Z,2.90
2023-01-05T13:45:59.861Z,3.53
2023-01-05T13:49:03.219Z,2.63
2023-01-05T13:51:52.742Z,3.00
2023-01-05T13:54:43.602Z,3.27
2023-01-05T13:57:27.257Z,3.07
2023-01-05T14:00:11.031Z,2.50
2023-01-05T14:02:42.437Z,2.70
2023-01-05T14:05:37.347Z,3.60
2023-01-05T14:08:14.012Z,2.60
2023-01-05T14:10:40.719Z,3.57
2023-01-05T14:13:42.423Z,4.83
2023-01-05T14:16:34.399Z,3.57
2023-01-05T14:19:19.042Z,3.60
2023-01-05T14:21:53.951Z,4.70
2023-01-05T14:24:32.163Z,3.57
2023-01-05T14:27:02.310Z,2.97
2023-01-05T14:32:27.299Z,4.00
2023-01-05T14:35:11.391Z,2.73
2023-01-05T14:38:04.668Z,3.60
2023-01-05T14:40:48.871Z,3.87
2023-01-05T14:43:21.647Z,4.57
2023-01-05T14:46:10.908Z,3.00
2023-01-05T14:48:58.602Z,3.90
2023-01-05T14:51:33.082Z,3.73
2023-01-05T14:54:05.780Z,3.00
2023-01-05T14:56:35.928Z,8.20
2023-01-05T14:59:16.302Z,4.07
2023-01-05T15:02:00.429Z,4.23
2023-01-05T15:04:35.329Z,2.77
2023-01-05T15:10:39.607Z,4.10
2023-01-05T15:13:42.724Z,3.20
2023-01-05T15:16:16.453Z,3.27
2023-01-05T15:18:54.895Z,3.03
2023-01-05T15:21:48.756Z,2.73
2023-01-05T15:24:54.756Z,3.30
2023-01-05T15:27:52.460Z,3.40
2023-01-05T15:30:34.642Z,3.40
2023-01-05T15:33:27.159Z,3.17
2023-01-05T15:36:00.913Z,3.73
2023-01-05T15:38:29.753Z,3.50
2023-01-05T15:41:19.705Z,4.80
2023-01-05T15:43:47.405Z,3.73
2023-01-05T15:46:22.290Z,3.50
2023-01-05T15:48:52.629Z,4.50
2023-01-05T15:51:24.852Z,3.80
2023-01-05T15:54:04.616Z,4.13
2023-01-05T15:56:39.779Z,4.13
2023-01-05T15:59:41.384Z,2.93
2023-01-05T16:02:28.703Z,3.70
2023-01-05T16:05:08.455Z,3.80
2023-01-05T16:07:35.326Z,3.60
2023-01-05T16:10:02.297Z,4.77
2023-01-05T16:12:29.131Z,4.50
2023-01-05T16:15:04.920Z,4.33
2023-01-05T16:17:37.480Z,4.53
2023-01-05T16:20:15.474Z,4.20
2023-01-05T16:22:52.797Z,4.23
2023-01-05T16:25:30.656Z,3.40
2023-01-05T16:28:03.724Z,4.20
2023-01-05T16:30:33.624Z,5.20
2023-01-05T16:33:12.417Z,3.40
2023-01-05T16:35:55.561Z,2.60
2023-01-05T16:38:29.327Z,5.20
2023-01-05T16:41:07.508Z,3.50
2023-01-05T16:43:39.670Z,3.70
2023-01-05T16:46:25.328Z,4.20
2023-01-05T16:48:56.849Z,8.00
2023-01-05T16:51:32.478Z,9.20
2023-01-05T16:54:14.906Z,4.70
2023-01-05T16:56:52.352Z,5.60
2023-01-05T16:59:40.626Z,5.37
2023-01-05T17:02:30.655Z,3.83
2023-01-05T17:04:57.489Z,4.67
2023-01-05T17:07:24.390Z,4.27
2023-01-05T17:09:51.295Z,4.23
2023-01-05T17:12:18.300Z,3.17
2023-01-05T17:14:46.580Z,5.20
2023-01-05T17:17:14.264Z,4.47
2023-01-05T17:19:41.091Z,3.33
2023-01-05T17:22:11.547Z,4.40
2023-01-05T17:24:39.829Z,3.57
2023-01-05T17:27:06.602Z,3.00
2023-01-05T17:29:34.981Z,2.50
2023-01-05T17:32:01.838Z,3.80
2023-01-05T17:34:28.962Z,3.37
2023-01-05T17:36:59.791Z,3.87
2023-01-05T17:39:26.765Z,4.00
2023-01-05T17:42:13.479Z,4.70
2023-01-05T17:44:40.479Z,4.70
2023-01-05T17:47:07.310Z,4.53
2023-01-05T17:49:34.167Z,5.20
2023-01-05T17:52:00.890Z,5.10
2023-01-05T17:54:27.636Z,4.80
2023-01-05T17:56:54.394Z,4.47
2023-01-05T17:59:21.162Z,3.80
2023-01-05T18:01:48.445Z,3.00
2023-01-05T18:04:15.127Z,3.73
2023-01-05T18:06:41.812Z,3.33
2023-01-05T18:09:08.519Z,3.50
2023-01-05T18:16:34.620Z,4.13
2023-01-05T18:19:01.290Z,4.93
2023-01-05T18:21:28.038Z,6.63
2023-01-05T18:23:54.759Z,6.33
2023-01-05T18:26:21.465Z,4.80
2023-01-05T18:28:48.161Z,4.30
2023-01-05T18:31:15.971Z,3.20
2023-01-05T18:33:43.076Z,3.00
2023-01-05T18:36:13.735Z,3.50
2023-01-05T18:38:42.268Z,3.00
2023-01-05T18:41:09.193Z,3.90
2023-01-05T18:43:36.249Z,4.63
2023-01-05T18:46:03.800Z,3.60
2023-01-05T18:48:30.793Z,3.40
2023-01-05T18:50:57.695Z,3.70
2023-01-05T18:53:25.413Z,3.83
2023-01-05T18:55:52.209Z,3.70
2023-01-05T18:58:19.001Z,3.30
2023-01-05T19:00:46.268Z,4.20
2023-01-05T19:03:13.635Z,3.77
2023-01-05T19:05:42.632Z,4.00
2023-01-05T19:08:10.447Z,3.43
2023-01-05T19:10:37.824Z,3.60
2023-01-05T19:13:05.414Z,3.70
2023-01-05T19:15:33.808Z,3.30
2023-01-05T19:18:00.852Z,2.90
2023-01-05T19:20:27.598Z,3.00
2023-01-05T19:22:54.334Z,3.30
2023-01-05T19:25:21.188Z,3.43
2023-01-05T19:27:47.872Z,2.70
2023-01-05T19:30:16.994Z,3.00
2023-01-05T19:32:43.928Z,3.20
2023-01-05T19:35:10.655Z,2.90
2023-01-05T19:37:42.319Z,3.67
2023-01-05T19:40:10.277Z,2.87
2023-01-05T19:42:37.343Z,3.13
2023-01-05T19:45:04.458Z,2.53
2023-01-05T19:47:31.239Z,2.40
2023-01-05T19:49:57.931Z,2.73
2023-01-05T19:52:29.571Z,2.57
2023-01-05T19:54:56.596Z,2.60
2023-01-05T19:57:23.657Z,2.10
2023-01-05T19:59:51.414Z,2.20
2023-01-05T20:02:18.491Z,2.30
2023-01-05T20:04:46.692Z,2.40
2023-01-05T20:07:13.717Z,2.83
2023-01-05T20:09:40.616Z,2.53
2023-01-05T20:12:14.342Z,2.63
2023-01-05T20:14:42.526Z,2.83
2023-01-05T20:17:10.842Z,2.57
2023-01-05T20:19:38.724Z,3.00
2023-01-05T20:22:07.725Z,2.80
2023-01-05T20:24:36.801Z,2.97
2023-01-05T20:27:09.133Z,3.00
2023-01-05T20:29:36.453Z,3.47
2023-01-05T20:32:06.974Z,2.70
2023-01-05T20:34:37.059Z,3.63
2023-01-05T20:37:07.248Z,2.93
2023-01-05T20:39:36.625Z,2.90
2023-01-05T20:42:06.406Z,2.70
2023-01-05T20:44:36.963Z,2.73
2023-01-05T20:47:05.598Z,3.47
2023-01-05T20:49:34.189Z,2.63
2023-01-05T20:52:00.941Z,2.60
2023-01-05T20:54:27.832Z,3.60
2023-01-05T20:56:54.792Z,4.73
2023-01-05T20:59:24.390Z,5.73
2023-01-05T21:01:51.738Z,3.20
2023-01-05T21:04:19.465Z,3.60
2023-01-05T21:06:47.005Z,3.37
2023-01-05T21:09:14.518Z,3.40
2023-01-05T21:11:41.750Z,3.00
2023-01-05T21:14:10.675Z,2.47
2023-01-05T21:16:42.765Z,2.33
2023-01-05T21:19:12.139Z,2.70
2023-01-05T21:21:39.069Z,3.13
2023-01-05T21:24:08.614Z,3.00
2023-01-05T21:26:35.483Z,3.50
2023-01-05T21:29:02.926Z,2.63
2023-01-05T21:31:29.729Z,2.60
2023-01-05T21:33:56.484Z,2.50
2023-01-05T21:36:26.251Z,3.10
2023-01-05T21:39:03.630Z,2.23
2023-01-05T21:41:53.189Z,1.93
2023-01-05T21:44:20.932Z,1.83
2023-01-05T21:46:48.961Z,2.33
2023-01-05T21:49:16.004Z,2.13
2023-01-05T21:52:01.541Z,2.77
2023-01-05T21:54:47.107Z,1.90
2023-01-05T21:57:14.094Z,1.90
2023-01-05T21:59:41.265Z,1.70
2023-01-05T22:02:08.309Z,2.23
2023-01-05T22:04:35.125Z,1.63
2023-01-05T22:07:02.180Z,2.00
2023-01-05T22:09:28.921Z,1.77
2023-01-05T22:11:55.651Z,1.80
2023-01-05T22:14:22.344Z,1.90
2023-01-05T22:16:49.075Z,2.13
2023-01-05T22:19:15.889Z,1.90
2023-01-05T22:21:42.841Z,2.40
2023-01-05T22:24:11.238Z,2.00
2023-01-05T22:26:38.111Z,2.00
2023-01-05T22:29:04.957Z,4.57
2023-01-05T22:31:32.947Z,4.40
2023-01-05T22:34:00.768Z,3.60
2023-01-05T22:36:29.268Z,2.90
2023-01-05T22:38:56.823Z,2.60
2023-01-05T22:41:26.131Z,2.07
2023-01-05T22:43:53.213Z,2.40
2023-01-05T22:46:22.481Z,2.27
2023-01-05T22:48:51.175Z,1.90
2023-01-05T22:51:25.374Z,2.13
2023-01-05T22:53:52.300Z,1.77
2023-01-05T22:56:21.112Z,2.30
2023-01-05T22:58:48.033Z,2.20
2023-01-05T23:01:37.201Z,2.13
2023-01-05T23:04:06.053Z,2.97
2023-01-05T23:06:33.346Z,1.90
2023-01-05T23:09:00.924Z,2.10
2023-01-05T23:11:34.554Z,1.90
2023-01-05T23:14:03.662Z,1.47
2023-01-05T23:16:30.784Z,1.63
2023-01-05T23:18:57.881Z,2.87
2023-01-05T23:21:26.709Z,2.20
2023-01-05T23:23:55.598Z,2.40
2023-01-05T23:26:23.897Z,1.70
2023-01-05T23:28:50.756Z,1.27
2023-01-05T23:31:19.272Z,1.60
2023-01-05T23:33:47.424Z,1.50
2023-01-05T23:36:16.037Z,1.80
2023-01-05T23:38:42.978Z,1.90
2023-01-05T23:41:11.862Z,1.80
2023-01-05T23:43:40.245Z,2.20
2023-01-05T23:46:10.419Z,2.30
2023-01-05T23:48:38.170Z,2.20
2023-01-05T23:51:07.565Z,2.70
2023-01-05T23:53:34.252Z,2.17
2023-01-05T23:56:24.037Z,2.03
2023-01-05T23:58:56.991Z,1.53
